sensor_id;sensor_type;location;lat;lon;timestamp;P1;durP1;ratioP1;P2;durP2;ratioP2
18649;SDS011;9454;53.516;10.478;2024-01-30T00:01:03;7.32;;;3.60;;
18649;SDS011;9454;53.516;10.478;2024-01-30T00:04:07;10.05;;;4.07;;
18649;SDS011;9454;53.516;10.478;2024-01-30T00:07:12;6.28;;;3.78;;
18649;SDS011;9454;53.516;10.478;2024-01-30T00:10:16;9.38;;;3.20;;
18649;SDS011;9454;53.516;10.478;2024-01-30T00:13:20;7.68;;;3.40;;
18649;SDS011;9454;53.516;10.478;2024-01-30T00:16:27;7.20;;;3.42;;
18649;SDS011;9454;53.516;10.478;2024-01-30T00:19:34;13.70;;;3.75;;
18649;SDS011;9454;53.516;10.478;2024-01-30T00:22:38;11.73;;;3.47;;
18649;SDS011;9454;53.516;10.478;2024-01-30T00:25:43;8.00;;;3.60;;
18649;SDS011;9454;53.516;10.478;2024-01-30T00:28:47;8.10;;;3.40;;
18649;SDS011;9454;53.516;10.478;2024-01-30T00:31:52;6.30;;;3.15;;
18649;SDS011;9454;53.516;10.478;2024-01-30T00:34:55;8.05;;;3.95;;
18649;SDS011;9454;53.516;10.478;2024-01-30T00:37:59;5.53;;;3.42;;
18649;SDS011;9454;53.516;10.478;2024-01-30T00:41:03;7.85;;;3.72;;
18649;SDS011;9454;53.516;10.478;2024-01-30T00:44:07;5.25;;;3.22;;
18649;SDS011;9454;53.516;10.478;2024-01-30T00:47:11;5.90;;;3.38;;
18649;SDS011;9454;53.516;10.478;2024-01-30T00:50:16;10.52;;;3.45;;
18649;SDS011;9454;53.516;10.478;2024-01-30T00:53:19;11.27;;;4.07;;
18649;SDS011;9454;53.516;10.478;2024-01-30T00:56:27;8.68;;;4.20;;
18649;SDS011;9454;53.516;10.478;2024-01-30T00:59:30;11.73;;;3.45;;
18649;SDS011;9454;53.516;10.478;2024-01-30T01:02:36;6.72;;;3.20;;
18649;SDS011;9454;53.516;10.478;2024-01-30T01:05:40;7.35;;;3.70;;
18649;SDS011;9454;53.516;10.478;2024-01-30T01:08:44;5.47;;;3.50;;
18649;SDS011;9454;53.516;10.478;2024-01-30T01:11:47;6.18;;;3.00;;
18649;SDS011;9454;53.516;10.478;2024-01-30T01:14:51;4.50;;;2.90;;
18649;SDS011;9454;53.516;10.478;2024-01-30T01:17:56;9.35;;;4.00;;
18649;SDS011;9454;53.516;10.478;2024-01-30T01:21:04;6.68;;;3.45;;
18649;SDS011;9454;53.516;10.478;2024-01-30T01:24:08;6.72;;;3.38;;
18649;SDS011;9454;53.516;10.478;2024-01-30T01:27:11;6.45;;;3.35;;
18649;SDS011;9454;53.516;10.478;2024-01-30T01:30:15;6.97;;;3.65;;
18649;SDS011;9454;53.516;10.478;2024-01-30T01:33:27;6.47;;;3.50;;
18649;SDS011;9454;53.516;10.478;2024-01-30T01:36:31;11.15;;;4.05;;
18649;SDS011;9454;53.516;10.478;2024-01-30T01:39:34;4.20;;;2.92;;
18649;SDS011;9454;53.516;10.478;2024-01-30T01:42:38;6.13;;;4.13;;
18649;SDS011;9454;53.516;10.478;2024-01-30T01:45:48;9.45;;;3.40;;
18649;SDS011;9454;53.516;10.478;2024-01-30T01:48:54;5.60;;;3.33;;
18649;SDS011;9454;53.516;10.478;2024-01-30T01:52:00;6.90;;;3.75;;
18649;SDS011;9454;53.516;10.478;2024-01-30T01:55:04;7.03;;;3.53;;
18649;SDS011;9454;53.516;10.478;2024-01-30T01:58:12;7.95;;;3.78;;
18649;SDS011;9454;53.516;10.478;2024-01-30T02:01:16;6.35;;;3.80;;
18649;SDS011;9454;53.516;10.478;2024-01-30T02:04:26;9.70;;;4.80;;
18649;SDS011;9454;53.516;10.478;2024-01-30T02:07:30;12.63;;;3.95;;
18649;SDS011;9454;53.516;10.478;2024-01-30T02:10:34;5.63;;;3.60;;
18649;SDS011;9454;53.516;10.478;2024-01-30T02:13:38;7.00;;;3.70;;
18649;SDS011;9454;53.516;10.478;2024-01-30T02:16:42;10.35;;;4.32;;
18649;SDS011;9454;53.516;10.478;2024-01-30T02:19:47;10.38;;;3.95;;
18649;SDS011;9454;53.516;10.478;2024-01-30T02:22:52;9.88;;;3.50;;
18649;SDS011;9454;53.516;10.478;2024-01-30T02:25:56;7.07;;;3.80;;
18649;SDS011;9454;53.516;10.478;2024-01-30T02:29:00;7.68;;;4.35;;
18649;SDS011;9454;53.516;10.478;2024-01-30T02:32:04;8.90;;;4.20;;
18649;SDS011;9454;53.516;10.478;2024-01-30T02:35:09;7.30;;;3.80;;
18649;SDS011;9454;53.516;10.478;2024-01-30T02:38:14;7.35;;;3.83;;
18649;SDS011;9454;53.516;10.478;2024-01-30T02:41:18;10.50;;;4.05;;
18649;SDS011;9454;53.516;10.478;2024-01-30T02:44:22;8.32;;;3.95;;
18649;SDS011;9454;53.516;10.478;2024-01-30T02:47:27;5.45;;;3.67;;
18649;SDS011;9454;53.516;10.478;2024-01-30T02:50:30;6.45;;;4.22;;
18649;SDS011;9454;53.516;10.478;2024-01-30T02:53:36;8.23;;;3.83;;
18649;SDS011;9454;53.516;10.478;2024-01-30T02:56:39;9.32;;;4.15;;
18649;SDS011;9454;53.516;10.478;2024-01-30T02:59:43;9.60;;;4.25;;
18649;SDS011;9454;53.516;10.478;2024-01-30T03:02:46;6.00;;;3.63;;
18649;SDS011;9454;53.516;10.478;2024-01-30T03:05:52;8.25;;;3.75;;
18649;SDS011;9454;53.516;10.478;2024-01-30T03:08:58;11.63;;;4.30;;
18649;SDS011;9454;53.516;10.478;2024-01-30T03:12:04;8.85;;;4.68;;
18649;SDS011;9454;53.516;10.478;2024-01-30T03:15:11;6.78;;;3.67;;
18649;SDS011;9454;53.516;10.478;2024-01-30T03:18:17;7.35;;;4.00;;
18649;SDS011;9454;53.516;10.478;2024-01-30T03:21:20;8.10;;;4.38;;
18649;SDS011;9454;53.516;10.478;2024-01-30T03:24:27;8.98;;;4.43;;
18649;SDS011;9454;53.516;10.478;2024-01-30T03:27:31;8.90;;;4.18;;
18649;SDS011;9454;53.516;10.478;2024-01-30T03:30:34;6.57;;;4.00;;
18649;SDS011;9454;53.516;10.478;2024-01-30T03:33:38;7.82;;;4.25;;
18649;SDS011;9454;53.516;10.478;2024-01-30T03:36:49;7.75;;;4.15;;
18649;SDS011;9454;53.516;10.478;2024-01-30T03:39:54;17.02;;;4.18;;
18649;SDS011;9454;53.516;10.478;2024-01-30T03:42:58;11.63;;;4.45;;
18649;SDS011;9454;53.516;10.478;2024-01-30T03:46:01;10.35;;;4.45;;
18649;SDS011;9454;53.516;10.478;2024-01-30T03:49:05;7.82;;;4.18;;
18649;SDS011;9454;53.516;10.478;2024-01-30T03:52:08;9.07;;;3.90;;
18649;SDS011;9454;53.516;10.478;2024-01-30T03:55:14;11.02;;;4.45;;
18649;SDS011;9454;53.516;10.478;2024-01-30T03:58:18;10.13;;;4.18;;
18649;SDS011;9454;53.516;10.478;2024-01-30T04:01:21;7.22;;;3.63;;
18649;SDS011;9454;53.516;10.478;2024-01-30T04:04:25;9.57;;;4.00;;
18649;SDS011;9454;53.516;10.478;2024-01-30T04:07:29;8.55;;;4.03;;
18649;SDS011;9454;53.516;10.478;2024-01-30T04:10:36;8.55;;;3.92;;
18649;SDS011;9454;53.516;10.478;2024-01-30T04:13:43;10.57;;;4.63;;
18649;SDS011;9454;53.516;10.478;2024-01-30T04:16:48;6.50;;;4.13;;
18649;SDS011;9454;53.516;10.478;2024-01-30T04:19:52;11.32;;;4.18;;
18649;SDS011;9454;53.516;10.478;2024-01-30T04:22:55;9.18;;;4.60;;
18649;SDS011;9454;53.516;10.478;2024-01-30T04:26:01;7.30;;;4.63;;
18649;SDS011;9454;53.516;10.478;2024-01-30T04:29:06;8.70;;;4.32;;
18649;SDS011;9454;53.516;10.478;2024-01-30T04:32:09;12.13;;;4.65;;
18649;SDS011;9454;53.516;10.478;2024-01-30T04:35:13;9.35;;;4.88;;
18649;SDS011;9454;53.516;10.478;2024-01-30T04:38:19;9.80;;;4.70;;
18649;SDS011;9454;53.516;10.478;2024-01-30T04:41:24;9.07;;;4.70;;
18649;SDS011;9454;53.516;10.478;2024-01-30T04:44:34;10.05;;;4.40;;
18649;SDS011;9454;53.516;10.478;2024-01-30T04:47:38;7.32;;;4.35;;
18649;SDS011;9454;53.516;10.478;2024-01-30T04:50:45;10.30;;;4.45;;
18649;SDS011;9454;53.516;10.478;2024-01-30T04:53:48;10.00;;;4.70;;
18649;SDS011;9454;53.516;10.478;2024-01-30T04:56:53;8.75;;;4.72;;
18649;SDS011;9454;53.516;10.478;2024-01-30T04:59:57;9.32;;;4.95;;
18649;SDS011;9454;53.516;10.478;2024-01-30T05:03:04;11.48;;;4.95;;
18649;SDS011;9454;53.516;10.478;2024-01-30T05:06:07;9.85;;;4.63;;
18649;SDS011;9454;53.516;10.478;2024-01-30T05:09:12;11.55;;;4.40;;
18649;SDS011;9454;53.516;10.478;2024-01-30T05:12:17;9.70;;;4.60;;
18649;SDS011;9454;53.516;10.478;2024-01-30T05:15:20;10.38;;;5.20;;
18649;SDS011;9454;53.516;10.478;2024-01-30T05:18:24;11.05;;;4.25;;
18649;SDS011;9454;53.516;10.478;2024-01-30T05:21:28;7.63;;;4.80;;
18649;SDS011;9454;53.516;10.478;2024-01-30T05:24:31;10.73;;;5.03;;
18649;SDS011;9454;53.516;10.478;2024-01-30T05:27:39;13.93;;;5.15;;
18649;SDS011;9454;53.516;10.478;2024-01-30T05:30:44;8.80;;;4.30;;
18649;SDS011;9454;53.516;10.478;2024-01-30T05:33:50;7.55;;;4.60;;
18649;SDS011;9454;53.516;10.478;2024-01-30T05:36:54;10.02;;;5.50;;
18649;SDS011;9454;53.516;10.478;2024-01-30T05:39:57;11.10;;;5.20;;
18649;SDS011;9454;53.516;10.478;2024-01-30T05:43:03;12.98;;;5.05;;
18649;SDS011;9454;53.516;10.478;2024-01-30T05:46:06;9.20;;;4.88;;
18649;SDS011;9454;53.516;10.478;2024-01-30T05:49:10;9.52;;;5.10;;
18649;SDS011;9454;53.516;10.478;2024-01-30T05:52:13;13.10;;;4.93;;
18649;SDS011;9454;53.516;10.478;2024-01-30T05:55:17;7.93;;;4.68;;
18649;SDS011;9454;53.516;10.478;2024-01-30T05:58:23;15.90;;;5.40;;
18649;SDS011;9454;53.516;10.478;2024-01-30T06:01:26;12.68;;;5.40;;
18649;SDS011;9454;53.516;10.478;2024-01-30T06:04:34;11.07;;;5.30;;
18649;SDS011;9454;53.516;10.478;2024-01-30T06:07:38;10.05;;;5.40;;
18649;SDS011;9454;53.516;10.478;2024-01-30T06:10:42;9.23;;;5.07;;
18649;SDS011;9454;53.516;10.478;2024-01-30T06:13:47;11.27;;;4.50;;
18649;SDS011;9454;53.516;10.478;2024-01-30T06:16:51;12.27;;;4.20;;
18649;SDS011;9454;53.516;10.478;2024-01-30T06:19:55;17.10;;;7.75;;
18649;SDS011;9454;53.516;10.478;2024-01-30T06:22:58;16.17;;;7.47;;
18649;SDS011;9454;53.516;10.478;2024-01-30T06:26:02;16.55;;;6.57;;
18649;SDS011;9454;53.516;10.478;2024-01-30T06:29:09;11.52;;;5.82;;
18649;SDS011;9454;53.516;10.478;2024-01-30T06:32:13;14.27;;;6.25;;
18649;SDS011;9454;53.516;10.478;2024-01-30T06:35:17;11.18;;;5.70;;
18649;SDS011;9454;53.516;10.478;2024-01-30T06:38:20;13.70;;;6.10;;
18649;SDS011;9454;53.516;10.478;2024-01-30T06:41:24;12.90;;;5.90;;
18649;SDS011;9454;53.516;10.478;2024-01-30T06:44:28;10.88;;;5.18;;
18649;SDS011;9454;53.516;10.478;2024-01-30T06:47:34;12.40;;;5.95;;
18649;SDS011;9454;53.516;10.478;2024-01-30T06:50:37;8.93;;;5.57;;
18649;SDS011;9454;53.516;10.478;2024-01-30T06:53:41;11.02;;;6.18;;
18649;SDS011;9454;53.516;10.478;2024-01-30T06:56:44;11.40;;;6.20;;
18649;SDS011;9454;53.516;10.478;2024-01-30T06:59:53;12.80;;;6.07;;
18649;SDS011;9454;53.516;10.478;2024-01-30T07:02:59;10.68;;;5.18;;
18649;SDS011;9454;53.516;10.478;2024-01-30T07:06:02;11.23;;;5.63;;
18649;SDS011;9454;53.516;10.478;2024-01-30T07:09:06;11.40;;;5.63;;
18649;SDS011;9454;53.516;10.478;2024-01-30T07:12:10;13.02;;;5.88;;
18649;SDS011;9454;53.516;10.478;2024-01-30T07:15:16;11.45;;;5.72;;
18649;SDS011;9454;53.516;10.478;2024-01-30T07:18:22;16.65;;;6.68;;
18649;SDS011;9454;53.516;10.478;2024-01-30T07:21:25;10.23;;;5.60;;
18649;SDS011;9454;53.516;10.478;2024-01-30T07:24:30;10.18;;;5.78;;
18649;SDS011;9454;53.516;10.478;2024-01-30T07:27:34;13.07;;;5.53;;
18649;SDS011;9454;53.516;10.478;2024-01-30T07:30:39;11.68;;;6.38;;
18649;SDS011;9454;53.516;10.478;2024-01-30T07:33:42;13.23;;;5.88;;
18649;SDS011;9454;53.516;10.478;2024-01-30T07:36:46;8.85;;;4.97;;
18649;SDS011;9454;53.516;10.478;2024-01-30T07:39:50;12.07;;;6.07;;
18649;SDS011;9454;53.516;10.478;2024-01-30T07:42:54;16.17;;;5.85;;
18649;SDS011;9454;53.516;10.478;2024-01-30T07:45:59;11.98;;;5.35;;
18649;SDS011;9454;53.516;10.478;2024-01-30T07:49:04;10.77;;;5.97;;
18649;SDS011;9454;53.516;10.478;2024-01-30T07:52:08;10.50;;;6.18;;
18649;SDS011;9454;53.516;10.478;2024-01-30T07:55:14;12.90;;;6.00;;
18649;SDS011;9454;53.516;10.478;2024-01-30T07:58:25;10.20;;;6.13;;
18649;SDS011;9454;53.516;10.478;2024-01-30T08:01:35;12.00;;;5.63;;
18649;SDS011;9454;53.516;10.478;2024-01-30T08:04:39;11.30;;;5.68;;
18649;SDS011;9454;53.516;10.478;2024-01-30T08:07:43;11.38;;;5.70;;
18649;SDS011;9454;53.516;10.478;2024-01-30T08:10:47;13.70;;;6.78;;
18649;SDS011;9454;53.516;10.478;2024-01-30T08:13:51;14.60;;;7.32;;
18649;SDS011;9454;53.516;10.478;2024-01-30T08:16:56;10.98;;;5.07;;
18649;SDS011;9454;53.516;10.478;2024-01-30T08:20:00;16.88;;;6.03;;
18649;SDS011;9454;53.516;10.478;2024-01-30T08:23:06;13.23;;;6.43;;
18649;SDS011;9454;53.516;10.478;2024-01-30T08:26:11;15.27;;;6.18;;
18649;SDS011;9454;53.516;10.478;2024-01-30T08:29:15;10.25;;;6.03;;
18649;SDS011;9454;53.516;10.478;2024-01-30T08:32:20;16.90;;;5.93;;
18649;SDS011;9454;53.516;10.478;2024-01-30T08:35:31;10.63;;;5.55;;
18649;SDS011;9454;53.516;10.478;2024-01-30T08:38:36;9.52;;;5.60;;
18649;SDS011;9454;53.516;10.478;2024-01-30T08:41:40;12.85;;;6.07;;
18649;SDS011;9454;53.516;10.478;2024-01-30T08:44:45;10.98;;;6.18;;
18649;SDS011;9454;53.516;10.478;2024-01-30T08:47:51;14.32;;;6.65;;
18649;SDS011;9454;53.516;10.478;2024-01-30T08:50:58;15.35;;;6.00;;
18649;SDS011;9454;53.516;10.478;2024-01-30T08:54:02;12.82;;;6.55;;
18649;SDS011;9454;53.516;10.478;2024-01-30T08:57:05;17.50;;;7.32;;
18649;SDS011;9454;53.516;10.478;2024-01-30T09:00:09;16.08;;;7.63;;
18649;SDS011;9454;53.516;10.478;2024-01-30T09:03:20;14.88;;;7.30;;
18649;SDS011;9454;53.516;10.478;2024-01-30T09:06:23;18.50;;;7.45;;
18649;SDS011;9454;53.516;10.478;2024-01-30T09:09:30;20.50;;;7.45;;
18649;SDS011;9454;53.516;10.478;2024-01-30T09:12:34;12.30;;;6.70;;
18649;SDS011;9454;53.516;10.478;2024-01-30T09:15:38;16.73;;;7.38;;
18649;SDS011;9454;53.516;10.478;2024-01-30T09:18:47;16.25;;;7.30;;
18649;SDS011;9454;53.516;10.478;2024-01-30T09:21:59;12.13;;;6.43;;
18649;SDS011;9454;53.516;10.478;2024-01-30T09:25:04;10.13;;;6.30;;
18649;SDS011;9454;53.516;10.478;2024-01-30T09:28:11;10.35;;;6.10;;
18649;SDS011;9454;53.516;10.478;2024-01-30T09:31:40;15.18;;;6.72;;
18649;SDS011;9454;53.516;10.478;2024-01-30T09:34:51;14.27;;;7.47;;
18649;SDS011;9454;53.516;10.478;2024-01-30T09:37:56;14.73;;;7.15;;
18649;SDS011;9454;53.516;10.478;2024-01-30T09:41:02;16.08;;;6.38;;
18649;SDS011;9454;53.516;10.478;2024-01-30T09:44:08;9.50;;;5.75;;
18649;SDS011;9454;53.516;10.478;2024-01-30T09:47:17;13.70;;;6.28;;
18649;SDS011;9454;53.516;10.478;2024-01-30T09:50:23;13.60;;;7.07;;
18649;SDS011;9454;53.516;10.478;2024-01-30T09:53:27;13.43;;;6.18;;
18649;SDS011;9454;53.516;10.478;2024-01-30T09:56:32;14.45;;;6.00;;
18649;SDS011;9454;53.516;10.478;2024-01-30T09:59:36;10.93;;;5.97;;
18649;SDS011;9454;53.516;10.478;2024-01-30T10:02:40;17.80;;;6.95;;
18649;SDS011;9454;53.516;10.478;2024-01-30T10:05:47;12.85;;;5.88;;
18649;SDS011;9454;53.516;10.478;2024-01-30T10:08:54;12.10;;;5.47;;
18649;SDS011;9454;53.516;10.478;2024-01-30T10:12:02;14.93;;;7.03;;
18649;SDS011;9454;53.516;10.478;2024-01-30T10:15:06;10.52;;;5.20;;
18649;SDS011;9454;53.516;10.478;2024-01-30T10:18:11;11.18;;;5.95;;
18649;SDS011;9454;53.516;10.478;2024-01-30T10:21:22;10.82;;;5.43;;
18649;SDS011;9454;53.516;10.478;2024-01-30T10:24:26;10.30;;;5.82;;
18649;SDS011;9454;53.516;10.478;2024-01-30T10:27:45;10.13;;;6.20;;
18649;SDS011;9454;53.516;10.478;2024-01-30T10:30:56;9.88;;;5.72;;
18649;SDS011;9454;53.516;10.478;2024-01-30T10:34:06;16.38;;;5.95;;
18649;SDS011;9454;53.516;10.478;2024-01-30T10:37:27;11.05;;;5.10;;
18649;SDS011;9454;53.516;10.478;2024-01-30T10:40:33;13.13;;;6.03;;
18649;SDS011;9454;53.516;10.478;2024-01-30T10:43:50;11.70;;;6.38;;
18649;SDS011;9454;53.516;10.478;2024-01-30T10:47:39;11.93;;;5.68;;
18649;SDS011;9454;53.516;10.478;2024-01-30T10:50:44;10.70;;;5.70;;
18649;SDS011;9454;53.516;10.478;2024-01-30T10:54:02;9.55;;;5.55;;
18649;SDS011;9454;53.516;10.478;2024-01-30T10:57:08;13.05;;;5.22;;
18649;SDS011;9454;53.516;10.478;2024-01-30T11:00:14;12.80;;;5.68;;
18649;SDS011;9454;53.516;10.478;2024-01-30T11:03:18;10.48;;;5.68;;
18649;SDS011;9454;53.516;10.478;2024-01-30T11:06:23;6.50;;;4.68;;
18649;SDS011;9454;53.516;10.478;2024-01-30T11:09:31;7.50;;;5.05;;
18649;SDS011;9454;53.516;10.478;2024-01-30T11:12:40;9.95;;;4.78;;
18649;SDS011;9454;53.516;10.478;2024-01-30T11:15:48;13.27;;;5.30;;
18649;SDS011;9454;53.516;10.478;2024-01-30T11:18:52;11.70;;;5.35;;
18649;SDS011;9454;53.516;10.478;2024-01-30T11:21:57;8.77;;;4.85;;
18649;SDS011;9454;53.516;10.478;2024-01-30T11:25:03;10.75;;;5.32;;
18649;SDS011;9454;53.516;10.478;2024-01-30T11:28:14;12.90;;;5.18;;
18649;SDS011;9454;53.516;10.478;2024-01-30T11:31:18;9.70;;;5.22;;
18649;SDS011;9454;53.516;10.478;2024-01-30T11:34:23;14.60;;;4.95;;
18649;SDS011;9454;53.516;10.478;2024-01-30T11:37:27;10.10;;;5.20;;
18649;SDS011;9454;53.516;10.478;2024-01-30T11:40:34;9.82;;;5.10;;
18649;SDS011;9454;53.516;10.478;2024-01-30T11:43:38;7.80;;;4.90;;
18649;SDS011;9454;53.516;10.478;2024-01-30T11:46:42;10.38;;;5.30;;
18649;SDS011;9454;53.516;10.478;2024-01-30T11:49:45;7.63;;;4.55;;
18649;SDS011;9454;53.516;10.478;2024-01-30T11:52:50;9.60;;;5.30;;
18649;SDS011;9454;53.516;10.478;2024-01-30T11:55:55;6.80;;;3.92;;
18649;SDS011;9454;53.516;10.478;2024-01-30T11:58:59;8.48;;;4.38;;
18649;SDS011;9454;53.516;10.478;2024-01-30T12:02:02;8.57;;;4.57;;
18649;SDS011;9454;53.516;10.478;2024-01-30T12:05:12;10.55;;;5.00;;
18649;SDS011;9454;53.516;10.478;2024-01-30T12:08:16;8.40;;;4.68;;
18649;SDS011;9454;53.516;10.478;2024-01-30T12:11:22;10.57;;;4.90;;
18649;SDS011;9454;53.516;10.478;2024-01-30T12:14:26;14.30;;;5.13;;
18649;SDS011;9454;53.516;10.478;2024-01-30T12:17:34;13.38;;;5.03;;
18649;SDS011;9454;53.516;10.478;2024-01-30T12:20:38;15.02;;;5.22;;
18649;SDS011;9454;53.516;10.478;2024-01-30T12:23:44;15.07;;;4.78;;
18649;SDS011;9454;53.516;10.478;2024-01-30T12:26:50;7.55;;;4.20;;
18649;SDS011;9454;53.516;10.478;2024-01-30T12:29:55;7.40;;;4.18;;
18649;SDS011;9454;53.516;10.478;2024-01-30T12:32:59;9.45;;;4.38;;
18649;SDS011;9454;53.516;10.478;2024-01-30T12:36:06;7.60;;;4.40;;
18649;SDS011;9454;53.516;10.478;2024-01-30T12:39:20;9.32;;;3.72;;
18649;SDS011;9454;53.516;10.478;2024-01-30T12:42:24;6.15;;;4.00;;
18649;SDS011;9454;53.516;10.478;2024-01-30T12:45:30;8.75;;;3.92;;
18649;SDS011;9454;53.516;10.478;2024-01-30T12:48:39;12.93;;;4.38;;
18649;SDS011;9454;53.516;10.478;2024-01-30T12:51:47;10.35;;;3.92;;
18649;SDS011;9454;53.516;10.478;2024-01-30T12:54:55;10.52;;;4.93;;
18649;SDS011;9454;53.516;10.478;2024-01-30T12:58:01;11.75;;;4.70;;
18649;SDS011;9454;53.516;10.478;2024-01-30T13:01:05;7.82;;;4.15;;
18649;SDS011;9454;53.516;10.478;2024-01-30T13:04:09;6.93;;;4.15;;
18649;SDS011;9454;53.516;10.478;2024-01-30T13:07:14;8.38;;;4.68;;
18649;SDS011;9454;53.516;10.478;2024-01-30T13:10:19;10.65;;;4.35;;
18649;SDS011;9454;53.516;10.478;2024-01-30T13:13:25;8.52;;;4.18;;
18649;SDS011;9454;53.516;10.478;2024-01-30T13:16:29;9.35;;;4.20;;
18649;SDS011;9454;53.516;10.478;2024-01-30T13:19:33;9.25;;;4.43;;
18649;SDS011;9454;53.516;10.478;2024-01-30T13:22:37;7.93;;;4.07;;
18649;SDS011;9454;53.516;10.478;2024-01-30T13:25:45;14.93;;;4.45;;
18649;SDS011;9454;53.516;10.478;2024-01-30T13:28:48;8.73;;;4.35;;
18649;SDS011;9454;53.516;10.478;2024-01-30T13:31:54;10.27;;;4.32;;
18649;SDS011;9454;53.516;10.478;2024-01-30T13:34:57;10.75;;;4.63;;
18649;SDS011;9454;53.516;10.478;2024-01-30T13:38:02;8.77;;;4.22;;
18649;SDS011;9454;53.516;10.478;2024-01-30T13:41:09;9.57;;;4.05;;
18649;SDS011;9454;53.516;10.478;2024-01-30T13:44:13;11.05;;;4.38;;
18649;SDS011;9454;53.516;10.478;2024-01-30T13:47:21;9.27;;;4.32;;
18649;SDS011;9454;53.516;10.478;2024-01-30T13:50:27;9.80;;;4.03;;
18649;SDS011;9454;53.516;10.478;2024-01-30T13:53:31;7.45;;;4.07;;
18649;SDS011;9454;53.516;10.478;2024-01-30T13:56:42;9.00;;;4.38;;
18649;SDS011;9454;53.516;10.478;2024-01-30T13:59:47;9.35;;;4.20;;
18649;SDS011;9454;53.516;10.478;2024-01-30T14:02:54;9.05;;;4.18;;
18649;SDS011;9454;53.516;10.478;2024-01-30T14:05:59;10.27;;;4.40;;
18649;SDS011;9454;53.516;10.478;2024-01-30T14:09:04;11.35;;;4.45;;
18649;SDS011;9454;53.516;10.478;2024-01-30T14:12:11;17.10;;;4.80;;
18649;SDS011;9454;53.516;10.478;2024-01-30T14:15:19;10.48;;;4.53;;
18649;SDS011;9454;53.516;10.478;2024-01-30T14:18:30;7.43;;;3.85;;
18649;SDS011;9454;53.516;10.478;2024-01-30T14:21:35;9.15;;;4.03;;
18649;SDS011;9454;53.516;10.478;2024-01-30T14:24:44;13.55;;;4.57;;
18649;SDS011;9454;53.516;10.478;2024-01-30T14:27:51;8.93;;;4.10;;
18649;SDS011;9454;53.516;10.478;2024-01-30T14:30:55;9.88;;;4.13;;
18649;SDS011;9454;53.516;10.478;2024-01-30T14:33:59;12.70;;;4.38;;
18649;SDS011;9454;53.516;10.478;2024-01-30T14:37:04;9.18;;;4.43;;
18649;SDS011;9454;53.516;10.478;2024-01-30T14:40:08;11.50;;;4.35;;
18649;SDS011;9454;53.516;10.478;2024-01-30T14:43:14;9.82;;;4.85;;
18649;SDS011;9454;53.516;10.478;2024-01-30T14:46:18;8.10;;;3.83;;
18649;SDS011;9454;53.516;10.478;2024-01-30T14:49:22;7.10;;;4.10;;
18649;SDS011;9454;53.516;10.478;2024-01-30T14:52:27;12.43;;;4.80;;
18649;SDS011;9454;53.516;10.478;2024-01-30T14:55:31;9.38;;;4.30;;
18649;SDS011;9454;53.516;10.478;2024-01-30T14:58:38;16.02;;;4.55;;
18649;SDS011;9454;53.516;10.478;2024-01-30T15:01:42;11.35;;;4.82;;
18649;SDS011;9454;53.516;10.478;2024-01-30T15:04:52;13.55;;;4.38;;
18649;SDS011;9454;53.516;10.478;2024-01-30T15:07:56;10.95;;;4.50;;
18649;SDS011;9454;53.516;10.478;2024-01-30T15:11:04;12.25;;;5.00;;
18649;SDS011;9454;53.516;10.478;2024-01-30T15:14:09;13.50;;;4.35;;
18649;SDS011;9454;53.516;10.478;2024-01-30T15:17:14;7.93;;;3.67;;
18649;SDS011;9454;53.516;10.478;2024-01-30T15:20:18;13.77;;;4.97;;
18649;SDS011;9454;53.516;10.478;2024-01-30T15:23:24;11.18;;;4.80;;
18649;SDS011;9454;53.516;10.478;2024-01-30T15:26:27;10.70;;;4.15;;
18649;SDS011;9454;53.516;10.478;2024-01-30T15:29:33;24.80;;;5.07;;
18649;SDS011;9454;53.516;10.478;2024-01-30T15:32:38;14.27;;;4.78;;
18649;SDS011;9454;53.516;10.478;2024-01-30T15:35:43;10.93;;;4.45;;
18649;SDS011;9454;53.516;10.478;2024-01-30T15:38:50;10.70;;;4.80;;
18649;SDS011;9454;53.516;10.478;2024-01-30T15:41:54;14.07;;;4.30;;
18649;SDS011;9454;53.516;10.478;2024-01-30T15:45:05;11.50;;;5.18;;
18649;SDS011;9454;53.516;10.478;2024-01-30T15:48:09;16.10;;;5.13;;
18649;SDS011;9454;53.516;10.478;2024-01-30T15:51:13;10.77;;;4.60;;
18649;SDS011;9454;53.516;10.478;2024-01-30T15:54:17;15.05;;;5.18;;
18649;SDS011;9454;53.516;10.478;2024-01-30T15:57:22;11.85;;;5.28;;
18649;SDS011;9454;53.516;10.478;2024-01-30T16:00:30;13.40;;;5.53;;
18649;SDS011;9454;53.516;10.478;2024-01-30T16:03:34;9.82;;;4.68;;
18649;SDS011;9454;53.516;10.478;2024-01-30T16:06:38;10.50;;;4.60;;
18649;SDS011;9454;53.516;10.478;2024-01-30T16:09:43;15.95;;;4.63;;
18649;SDS011;9454;53.516;10.478;2024-01-30T16:12:47;12.65;;;5.07;;
18649;SDS011;9454;53.516;10.478;2024-01-30T16:15:54;15.57;;;5.10;;
18649;SDS011;9454;53.516;10.478;2024-01-30T16:18:59;12.63;;;4.43;;
18649;SDS011;9454;53.516;10.478;2024-01-30T16:22:09;11.38;;;5.13;;
18649;SDS011;9454;53.516;10.478;2024-01-30T16:25:13;19.27;;;5.07;;
18649;SDS011;9454;53.516;10.478;2024-01-30T16:28:24;12.80;;;5.50;;
18649;SDS011;9454;53.516;10.478;2024-01-30T16:31:29;15.65;;;4.38;;
18649;SDS011;9454;53.516;10.478;2024-01-30T16:34:37;12.15;;;4.60;;
18649;SDS011;9454;53.516;10.478;2024-01-30T16:37:41;19.60;;;5.38;;
18649;SDS011;9454;53.516;10.478;2024-01-30T16:40:46;10.55;;;5.10;;
18649;SDS011;9454;53.516;10.478;2024-01-30T16:43:51;10.32;;;4.75;;
18649;SDS011;9454;53.516;10.478;2024-01-30T16:47:01;7.90;;;4.85;;
18649;SDS011;9454;53.516;10.478;2024-01-30T16:50:04;8.48;;;4.90;;
18649;SDS011;9454;53.516;10.478;2024-01-30T16:53:12;13.48;;;4.85;;
18649;SDS011;9454;53.516;10.478;2024-01-30T16:56:16;10.13;;;4.90;;
18649;SDS011;9454;53.516;10.478;2024-01-30T16:59:20;13.02;;;5.18;;
18649;SDS011;9454;53.516;10.478;2024-01-30T17:02:25;9.55;;;4.70;;
18649;SDS011;9454;53.516;10.478;2024-01-30T17:05:34;18.08;;;4.38;;
18649;SDS011;9454;53.516;10.478;2024-01-30T17:08:38;9.65;;;4.25;;
18649;SDS011;9454;53.516;10.478;2024-01-30T17:11:46;11.90;;;5.13;;
18649;SDS011;9454;53.516;10.478;2024-01-30T17:14:50;10.20;;;4.75;;
18649;SDS011;9454;53.516;10.478;2024-01-30T17:17:59;9.48;;;4.88;;
18649;SDS011;9454;53.516;10.478;2024-01-30T17:21:03;15.75;;;5.05;;
18649;SDS011;9454;53.516;10.478;2024-01-30T17:24:07;17.15;;;5.53;;
18649;SDS011;9454;53.516;10.478;2024-01-30T17:27:12;12.45;;;4.20;;
18649;SDS011;9454;53.516;10.478;2024-01-30T17:30:22;17.95;;;8.13;;
18649;SDS011;9454;53.516;10.478;2024-01-30T17:33:27;16.48;;;6.70;;
18649;SDS011;9454;53.516;10.478;2024-01-30T17:36:36;16.77;;;7.30;;
18649;SDS011;9454;53.516;10.478;2024-01-30T17:39:42;17.27;;;6.53;;
18649;SDS011;9454;53.516;10.478;2024-01-30T17:42:47;13.70;;;8.32;;
18649;SDS011;9454;53.516;10.478;2024-01-30T17:45:54;14.70;;;7.10;;
18649;SDS011;9454;53.516;10.478;2024-01-30T17:49:02;11.40;;;7.15;;
18649;SDS011;9454;53.516;10.478;2024-01-30T17:52:08;11.65;;;6.28;;
18649;SDS011;9454;53.516;10.478;2024-01-30T17:55:11;10.80;;;5.35;;
18649;SDS011;9454;53.516;10.478;2024-01-30T17:58:22;13.00;;;5.60;;
18649;SDS011;9454;53.516;10.478;2024-01-30T18:01:25;11.95;;;4.82;;
18649;SDS011;9454;53.516;10.478;2024-01-30T18:04:31;9.95;;;5.22;;
18649;SDS011;9454;53.516;10.478;2024-01-30T18:07:36;12.18;;;4.72;;
18649;SDS011;9454;53.516;10.478;2024-01-30T18:10:51;15.25;;;5.18;;
18649;SDS011;9454;53.516;10.478;2024-01-30T18:13:59;9.55;;;5.40;;
18649;SDS011;9454;53.516;10.478;2024-01-30T18:17:03;12.32;;;4.75;;
18649;SDS011;9454;53.516;10.478;2024-01-30T18:20:09;11.73;;;5.60;;
18649;SDS011;9454;53.516;10.478;2024-01-30T18:23:15;10.82;;;5.28;;
18649;SDS011;9454;53.516;10.478;2024-01-30T18:26:18;12.20;;;4.78;;
18649;SDS011;9454;53.516;10.478;2024-01-30T18:29:22;12.73;;;4.63;;